sensor_id;sensor_type;location;lat;lon;timestamp;pressure;altitude;pressure_sealevel;temperature;humidity
77023;BME280;65952;51.440;-2.054;2023-04-24T00:02:20;99411.88;;;7.71;75.14
77023;BME280;65952;51.440;-2.054;2023-04-24T00:04:45;99419.22;;;7.69;75.23
77023;BME280;65952;51.440;-2.054;2023-04-24T00:07:12;99423.06;;;7.67;75.30
77023;BME280;65952;51.440;-2.054;2023-04-24T00:09:38;99422.25;;;7.66;75.17
77023;BME280;65952;51.440;-2.054;2023-04-24T00:12:04;99433.25;;;7.63;75.38
77023;BME280;65952;51.440;-2.054;2023-04-24T00:14:30;99435.75;;;7.64;75.35
77023;BME280;65952;51.440;-2.054;2023-04-24T00:16:56;99431.25;;;7.65;75.07
77023;BME280;65952;51.440;-2.054;2023-04-24T00:19:21;99431.75;;;7.60;75.39
77023;BME280;65952;51.440;-2.054;2023-04-24T00:21:47;99433.63;;;7.60;75.20
77023;BME280;65952;51.440;-2.054;2023-04-24T00:24:16;99427.94;;;7.55;75.33
77023;BME280;65952;51.440;-2.054;2023-04-24T00:26:41;99445.28;;;7.51;75.53
77023;BME280;65952;51.440;-2.054;2023-04-24T00:29:07;99441.63;;;7.52;75.63
77023;BME280;65952;51.440;-2.054;2023-04-24T00:31:32;99445.28;;;7.51;75.64
77023;BME280;65952;51.440;-2.054;2023-04-24T00:34:00;99441.13;;;7.48;75.56
77023;BME280;65952;51.440;-2.054;2023-04-24T00:36:25;99444.66;;;7.48;75.79
77023;BME280;65952;51.440;-2.054;2023-04-24T00:38:52;99439.63;;;7.54;75.47
77023;BME280;65952;51.440;-2.054;2023-04-24T00:41:18;99439.97;;;7.51;75.47
77023;BME280;65952;51.440;-2.054;2023-04-24T00:43:44;99446.97;;;7.52;75.53
77023;BME280;65952;51.440;-2.054;2023-04-24T00:46:10;99444.66;;;7.48;75.61
77023;BME280;65952;51.440;-2.054;2023-04-24T00:48:38;99450.81;;;7.49;75.50
77023;BME280;65952;51.440;-2.054;2023-04-24T00:51:04;99456.34;;;7.47;75.38
77023;BME280;65952;51.440;-2.054;2023-04-24T00:53:29;99453.16;;;7.44;75.55
77023;BME280;65952;51.440;-2.054;2023-04-24T00:55:55;99450.31;;;7.45;75.61
77023;BME280;65952;51.440;-2.054;2023-04-24T00:58:21;99453.34;;;7.42;75.65
77023;BME280;65952;51.440;-2.054;2023-04-24T01:00:48;99455.34;;;7.40;75.79
77023;BME280;65952;51.440;-2.054;2023-04-24T01:03:14;99447.16;;;7.42;75.81
77023;BME280;65952;51.440;-2.054;2023-04-24T01:05:41;99447.00;;;7.43;75.86
77023;BME280;65952;51.440;-2.054;2023-04-24T01:08:06;99453.66;;;7.39;75.93
77023;BME280;65952;51.440;-2.054;2023-04-24T01:10:33;99460.00;;;7.38;76.00
77023;BME280;65952;51.440;-2.054;2023-04-24T01:12:59;99457.31;;;7.38;76.18
77023;BME280;65952;51.440;-2.054;2023-04-24T01:15:25;99458.34;;;7.37;76.20
77023;BME280;65952;51.440;-2.054;2023-04-24T01:17:51;99458.34;;;7.29;76.34
77023;BME280;65952;51.440;-2.054;2023-04-24T01:20:17;99468.19;;;7.28;76.46
77023;BME280;65952;51.440;-2.054;2023-04-24T01:22:42;99461.50;;;7.24;76.63
77023;BME280;65952;51.440;-2.054;2023-04-24T01:25:08;99466.84;;;7.24;76.50
77023;BME280;65952;51.440;-2.054;2023-04-24T01:27:34;99466.19;;;7.22;76.78
77023;BME280;65952;51.440;-2.054;2023-04-24T01:29:59;99467.19;;;7.21;76.74
77023;BME280;65952;51.440;-2.054;2023-04-24T01:32:25;99463.34;;;7.15;76.83
77023;BME280;65952;51.440;-2.054;2023-04-24T01:34:51;99474.38;;;7.12;76.93
77023;BME280;65952;51.440;-2.054;2023-04-24T01:37:17;99467.34;;;7.11;76.97
77023;BME280;65952;51.440;-2.054;2023-04-24T01:39:43;99469.69;;;7.06;77.35
77023;BME280;65952;51.440;-2.054;2023-04-24T01:42:09;99468.53;;;7.09;77.16
77023;BME280;65952;51.440;-2.054;2023-04-24T01:44:34;99473.03;;;7.08;77.14
77023;BME280;65952;51.440;-2.054;2023-04-24T01:47:00;99477.03;;;7.12;76.94
77023;BME280;65952;51.440;-2.054;2023-04-24T01:49:26;99476.03;;;7.13;76.75
77023;BME280;65952;51.440;-2.054;2023-04-24T01:51:52;99477.72;;;7.14;76.88
77023;BME280;65952;51.440;-2.054;2023-04-24T01:54:17;99476.03;;;7.13;76.83
77023;BME280;65952;51.440;-2.054;2023-04-24T01:56:43;99473.19;;;7.15;76.79
77023;BME280;65952;51.440;-2.054;2023-04-24T01:59:10;99481.03;;;7.16;76.57
77023;BME280;65952;51.440;-2.054;2023-04-24T02:01:36;99480.22;;;7.16;76.30
77023;BME280;65952;51.440;-2.054;2023-04-24T02:04:02;99483.19;;;7.13;76.42
77023;BME280;65952;51.440;-2.054;2023-04-24T02:06:28;99478.38;;;7.08;76.21
77023;BME280;65952;51.440;-2.054;2023-04-24T02:08:53;99486.69;;;7.05;76.22
77023;BME280;65952;51.440;-2.054;2023-04-24T02:11:19;99475.38;;;7.03;76.20
77023;BME280;65952;51.440;-2.054;2023-04-24T02:13:44;99484.03;;;6.97;76.36
77023;BME280;65952;51.440;-2.054;2023-04-24T02:16:10;99485.34;;;6.93;76.75
77023;BME280;65952;51.440;-2.054;2023-04-24T02:18:35;99489.88;;;6.92;76.95
77023;BME280;65952;51.440;-2.054;2023-04-24T02:21:01;99495.19;;;6.92;77.02
77023;BME280;65952;51.440;-2.054;2023-04-24T02:23:26;99503.88;;;6.94;77.14
77023;BME280;65952;51.440;-2.054;2023-04-24T02:25:52;99503.53;;;6.97;77.24
77023;BME280;65952;51.440;-2.054;2023-04-24T02:28:18;99498.22;;;6.97;77.03
77023;BME280;65952;51.440;-2.054;2023-04-24T02:30:44;99499.19;;;6.96;76.99
77023;BME280;65952;51.440;-2.054;2023-04-24T02:33:09;99497.38;;;6.97;76.86
77023;BME280;65952;51.440;-2.054;2023-04-24T02:35:36;99497.34;;;6.89;77.20
77023;BME280;65952;51.440;-2.054;2023-04-24T02:38:01;99504.84;;;6.85;77.07
77023;BME280;65952;51.440;-2.054;2023-04-24T02:40:26;99507.69;;;6.83;76.95
77023;BME280;65952;51.440;-2.054;2023-04-24T02:42:52;99516.00;;;6.80;77.39
77023;BME280;65952;51.440;-2.054;2023-04-24T02:45:17;99508.00;;;6.80;77.29
77023;BME280;65952;51.440;-2.054;2023-04-24T02:47:42;99513.00;;;6.75;77.62
77023;BME280;65952;51.440;-2.054;2023-04-24T02:50:08;99518.50;;;6.74;77.61
77023;BME280;65952;51.440;-2.054;2023-04-24T02:52:33;99525.16;;;6.78;77.72
77023;BME280;65952;51.440;-2.054;2023-04-24T02:54:59;99530.38;;;6.79;77.40
77023;BME280;65952;51.440;-2.054;2023-04-24T02:57:24;99515.19;;;6.80;77.21
77023;BME280;65952;51.440;-2.054;2023-04-24T02:59:50;99526.69;;;6.80;77.22
77023;BME280;65952;51.440;-2.054;2023-04-24T03:02:15;99527.69;;;6.79;77.00
77023;BME280;65952;51.440;-2.054;2023-04-24T03:04:40;99532.19;;;6.79;77.06
77023;BME280;65952;51.440;-2.054;2023-04-24T03:07:08;99539.03;;;6.81;76.87
77023;BME280;65952;51.440;-2.054;2023-04-24T03:09:33;99540.88;;;6.81;76.60
77023;BME280;65952;51.440;-2.054;2023-04-24T03:11:58;99539.84;;;6.74;76.54
77023;BME280;65952;51.440;-2.054;2023-04-24T03:14:24;99546.97;;;6.65;76.63
77023;BME280;65952;51.440;-2.054;2023-04-24T03:16:49;99544.81;;;6.60;76.65
77023;BME280;65952;51.440;-2.054;2023-04-24T03:19:15;99549.41;;;6.50;76.83
77023;BME280;65952;51.440;-2.054;2023-04-24T03:21:40;99543.91;;;6.43;76.94
77023;BME280;65952;51.440;-2.054;2023-04-24T03:24:09;99546.22;;;6.38;77.16
77023;BME280;65952;51.440;-2.054;2023-04-24T03:26:35;99550.69;;;6.38;77.12
77023;BME280;65952;51.440;-2.054;2023-04-24T03:29:00;99543.50;;;6.30;77.46
77023;BME280;65952;51.440;-2.054;2023-04-24T03:31:26;99548.00;;;6.29;77.67
77023;BME280;65952;51.440;-2.054;2023-04-24T03:33:51;99549.69;;;6.30;77.82
77023;BME280;65952;51.440;-2.054;2023-04-24T03:36:17;99556.16;;;6.28;77.82
77023;BME280;65952;51.440;-2.054;2023-04-24T03:38:44;99553.50;;;6.28;78.10
77023;BME280;65952;51.440;-2.054;2023-04-24T03:41:09;99549.09;;;6.18;78.11
77023;BME280;65952;51.440;-2.054;2023-04-24T03:43:35;99545.44;;;6.20;78.14
77023;BME280;65952;51.440;-2.054;2023-04-24T03:46:01;99538.78;;;6.15;78.01
77023;BME280;65952;51.440;-2.054;2023-04-24T03:48:26;99537.44;;;6.11;78.22
77023;BME280;65952;51.440;-2.054;2023-04-24T03:50:51;99537.03;;;6.06;78.66
77023;BME280;65952;51.440;-2.054;2023-04-24T03:53:17;99546.19;;;6.04;78.35
77023;BME280;65952;51.440;-2.054;2023-04-24T03:55:42;99540.03;;;6.03;78.54
77023;BME280;65952;51.440;-2.054;2023-04-24T03:58:08;99548.03;;;6.03;78.35
77023;BME280;65952;51.440;-2.054;2023-04-24T04:00:33;99548.50;;;5.98;78.60
77023;BME280;65952;51.440;-2.054;2023-04-24T04:02:59;99542.25;;;5.90;78.47
77023;BME280;65952;51.440;-2.054;2023-04-24T04:05:25;99545.53;;;5.83;78.54
77023;BME280;65952;51.440;-2.054;2023-04-24T04:07:50;99549.66;;;5.78;78.68
77023;BME280;65952;51.440;-2.054;2023-04-24T04:10:16;99551.13;;;5.72;78.63
77023;BME280;65952;51.440;-2.054;2023-04-24T04:12:42;99549.75;;;5.68;78.58
77023;BME280;65952;51.440;-2.054;2023-04-24T04:15:08;99558.06;;;5.65;78.52
77023;BME280;65952;51.440;-2.054;2023-04-24T04:17:33;99560.81;;;5.55;78.63
77023;BME280;65952;51.440;-2.054;2023-04-24T04:19:59;99561.59;;;5.47;78.75
77023;BME280;65952;51.440;-2.054;2023-04-24T04:22:25;99551.56;;;5.41;78.85
77023;BME280;65952;51.440;-2.054;2023-04-24T04:24:50;99556.56;;;5.44;79.42
77023;BME280;65952;51.440;-2.054;2023-04-24T04:27:16;99548.72;;;5.43;79.28
77023;BME280;65952;51.440;-2.054;2023-04-24T04:29:44;99551.72;;;5.40;79.30
77023;BME280;65952;51.440;-2.054;2023-04-24T04:32:09;99560.81;;;5.37;79.31
77023;BME280;65952;51.440;-2.054;2023-04-24T04:34:34;99561.22;;;5.42;79.44
77023;BME280;65952;51.440;-2.054;2023-04-24T04:37:02;99561.50;;;5.39;79.36
77023;BME280;65952;51.440;-2.054;2023-04-24T04:39:28;99561.22;;;5.42;79.37
77023;BME280;65952;51.440;-2.054;2023-04-24T04:41:55;99565.03;;;5.40;79.64
77023;BME280;65952;51.440;-2.054;2023-04-24T04:44:21;99559.38;;;5.43;79.42
77023;BME280;65952;51.440;-2.054;2023-04-24T04:46:46;99558.41;;;5.44;79.82
77023;BME280;65952;51.440;-2.054;2023-04-24T04:49:12;99565.53;;;5.43;79.68
77023;BME280;65952;51.440;-2.054;2023-04-24T04:51:38;99569.72;;;5.46;79.94
77023;BME280;65952;51.440;-2.054;2023-04-24T04:54:03;99567.91;;;5.46;80.06
77023;BME280;65952;51.440;-2.054;2023-04-24T04:56:29;99566.44;;;5.52;79.80
77023;BME280;65952;51.440;-2.054;2023-04-24T04:58:55;99565.00;;;5.58;79.97
77023;BME280;65952;51.440;-2.054;2023-04-24T05:01:20;99566.50;;;5.60;80.04
77023;BME280;65952;51.440;-2.054;2023-04-24T05:03:46;99565.91;;;5.66;80.04
77023;BME280;65952;51.440;-2.054;2023-04-24T05:06:11;99569.75;;;5.72;80.03
77023;BME280;65952;51.440;-2.054;2023-04-24T05:08:37;99570.13;;;5.77;80.04
77023;BME280;65952;51.440;-2.054;2023-04-24T05:11:02;99574.00;;;5.83;79.98
77023;BME280;65952;51.440;-2.054;2023-04-24T05:13:28;99573.22;;;5.91;79.86
77023;BME280;65952;51.440;-2.054;2023-04-24T05:15:53;99576.59;;;5.93;79.63
77023;BME280;65952;51.440;-2.054;2023-04-24T05:18:18;99577.09;;;5.96;79.36
77023;BME280;65952;51.440;-2.054;2023-04-24T05:20:44;99579.59;;;5.98;79.33
77023;BME280;65952;51.440;-2.054;2023-04-24T05:23:09;99579.19;;;6.03;79.43
77023;BME280;65952;51.440;-2.054;2023-04-24T05:25:35;99581.34;;;6.07;79.43
77023;BME280;65952;51.440;-2.054;2023-04-24T05:28:01;99588.56;;;6.15;79.25
77023;BME280;65952;51.440;-2.054;2023-04-24T05:30:28;99595.47;;;6.26;79.18
77023;BME280;65952;51.440;-2.054;2023-04-24T05:32:53;99599.38;;;6.40;79.01
77023;BME280;65952;51.440;-2.054;2023-04-24T05:35:19;99604.84;;;6.64;78.48
77023;BME280;65952;51.440;-2.054;2023-04-24T05:37:44;99603.75;;;6.83;77.86
77023;BME280;65952;51.440;-2.054;2023-04-24T05:40:10;99609.00;;;7.10;77.37
77023;BME280;65952;51.440;-2.054;2023-04-24T05:42:36;99610.38;;;7.30;76.78
77023;BME280;65952;51.440;-2.054;2023-04-24T05:45:01;99608.22;;;7.42;75.22
77023;BME280;65952;51.440;-2.054;2023-04-24T05:47:27;99613.59;;;7.59;74.99
77023;BME280;65952;51.440;-2.054;2023-04-24T05:49:52;99606.22;;;7.69;74.59
77023;BME280;65952;51.440;-2.054;2023-04-24T05:52:18;99606.72;;;7.81;73.84
77023;BME280;65952;51.440;-2.054;2023-04-24T05:54:43;99607.91;;;7.87;73.04
77023;BME280;65952;51.440;-2.054;2023-04-24T05:57:09;99616.75;;;7.87;72.79
77023;BME280;65952;51.440;-2.054;2023-04-24T05:59:37;99616.75;;;7.87;72.84
77023;BME280;65952;51.440;-2.054;2023-04-24T06:02:04;99618.59;;;7.87;72.69
77023;BME280;65952;51.440;-2.054;2023-04-24T06:04:29;99629.78;;;7.82;72.55
77023;BME280;65952;51.440;-2.054;2023-04-24T06:06:55;99641.63;;;7.79;72.69
77023;BME280;65952;51.440;-2.054;2023-04-24T06:09:22;99632.13;;;7.77;72.67
77023;BME280;65952;51.440;-2.054;2023-04-24T06:11:48;99640.81;;;7.79;72.56
77023;BME280;65952;51.440;-2.054;2023-04-24T06:14:14;99628.44;;;7.78;72.67
77023;BME280;65952;51.440;-2.054;2023-04-24T06:16:42;99641.97;;;7.85;72.52
77023;BME280;65952;51.440;-2.054;2023-04-24T06:19:07;99632.47;;;7.90;72.22
77023;BME280;65952;51.440;-2.054;2023-04-24T06:21:33;99625.13;;;7.92;72.41
77023;BME280;65952;51.440;-2.054;2023-04-24T06:23:58;99635.78;;;8.01;72.47
77023;BME280;65952;51.440;-2.054;2023-04-24T06:26:24;99636.28;;;8.12;72.16
77023;BME280;65952;51.440;-2.054;2023-04-24T06:28:52;99642.44;;;8.21;72.21
77023;BME280;65952;51.440;-2.054;2023-04-24T06:31:21;99638.59;;;8.32;72.06
77023;BME280;65952;51.440;-2.054;2023-04-24T06:33:48;99638.75;;;8.47;71.81
77023;BME280;65952;51.440;-2.054;2023-04-24T06:36:14;99648.59;;;8.63;71.24
77023;BME280;65952;51.440;-2.054;2023-04-24T06:38:40;99648.34;;;8.89;71.16
77023;BME280;65952;51.440;-2.054;2023-04-24T06:41:05;99640.66;;;9.49;69.69
77023;BME280;65952;51.440;-2.054;2023-04-24T06:43:33;99635.09;;;10.95;68.12
77023;BME280;65952;51.440;-2.054;2023-04-24T06:45:59;99629.56;;;12.90;61.48
77023;BME280;65952;51.440;-2.054;2023-04-24T06:48:25;99628.16;;;14.70;57.96
77023;BME280;65952;51.440;-2.054;2023-04-24T06:50:51;99638.44;;;16.16;50.59
77023;BME280;65952;51.440;-2.054;2023-04-24T06:53:17;99628.16;;;17.67;47.45
77023;BME280;65952;51.440;-2.054;2023-04-24T06:55:42;99629.31;;;18.84;42.56
77023;BME280;65952;51.440;-2.054;2023-04-24T06:58:11;99631.88;;;19.90;40.02
77023;BME280;65952;51.440;-2.054;2023-04-24T07:00:37;99637.19;;;20.87;38.04
77023;BME280;65952;51.440;-2.054;2023-04-24T07:03:03;99640.13;;;21.52;36.55
77023;BME280;65952;51.440;-2.054;2023-04-24T07:05:30;99641.56;;;21.87;35.18
77023;BME280;65952;51.440;-2.054;2023-04-24T07:07:56;99640.34;;;22.37;33.21
77023;BME280;65952;51.440;-2.054;2023-04-24T07:10:23;99639.38;;;22.54;34.00
77023;BME280;65952;51.440;-2.054;2023-04-24T07:12:49;99638.06;;;21.91;34.26
77023;BME280;65952;51.440;-2.054;2023-04-24T07:15:14;99644.13;;;20.94;34.83
77023;BME280;65952;51.440;-2.054;2023-04-24T07:17:40;99627.91;;;20.49;37.00
77023;BME280;65952;51.440;-2.054;2023-04-24T07:20:08;99637.03;;;20.03;37.29
77023;BME280;65952;51.440;-2.054;2023-04-24T07:22:35;99635.63;;;19.84;37.22
77023;BME280;65952;51.440;-2.054;2023-04-24T07:25:01;99642.22;;;19.30;38.49
77023;BME280;65952;51.440;-2.054;2023-04-24T07:27:26;99643.69;;;19.09;38.99
77023;BME280;65952;51.440;-2.054;2023-04-24T07:29:52;99643.97;;;18.95;39.95
77023;BME280;65952;51.440;-2.054;2023-04-24T07:32:17;99645.53;;;19.32;39.14
77023;BME280;65952;51.440;-2.054;2023-04-24T07:34:42;99634.84;;;19.42;38.36
77023;BME280;65952;51.440;-2.054;2023-04-24T07:37:08;99635.00;;;18.83;38.59
77023;BME280;65952;51.440;-2.054;2023-04-24T07:39:33;99630.34;;;17.89;39.83
77023;BME280;65952;51.440;-2.054;2023-04-24T07:41:58;99627.00;;;16.77;42.70
77023;BME280;65952;51.440;-2.054;2023-04-24T07:44:24;99629.94;;;16.06;44.67
77023;BME280;65952;51.440;-2.054;2023-04-24T07:46:49;99627.50;;;15.34;46.23
77023;BME280;65952;51.440;-2.054;2023-04-24T07:49:15;99633.44;;;15.49;46.43
77023;BME280;65952;51.440;-2.054;2023-04-24T07:51:40;99631.94;;;16.17;46.05
77023;BME280;65952;51.440;-2.054;2023-04-24T07:54:06;99623.94;;;16.29;44.74
77023;BME280;65952;51.440;-2.054;2023-04-24T07:56:32;99629.91;;;15.49;46.93
77023;BME280;65952;51.440;-2.054;2023-04-24T07:58:58;99631.50;;;14.66;48.68
77023;BME280;65952;51.440;-2.054;2023-04-24T08:01:23;99629.03;;;13.97;50.99
77023;BME280;65952;51.440;-2.054;2023-04-24T08:03:50;99628.91;;;13.30;53.11
77023;BME280;65952;51.440;-2.054;2023-04-24T08:06:16;99633.88;;;12.78;54.17
77023;BME280;65952;51.440;-2.054;2023-04-24T08:08:41;99638.63;;;12.41;55.01
77023;BME280;65952;51.440;-2.054;2023-04-24T08:11:07;99646.09;;;12.17;55.49
77023;BME280;65952;51.440;-2.054;2023-04-24T08:13:32;99650.50;;;11.96;56.67
77023;BME280;65952;51.440;-2.054;2023-04-24T08:15:58;99647.41;;;11.78;57.76
77023;BME280;65952;51.440;-2.054;2023-04-24T08:18:23;99652.63;;;11.64;57.97
77023;BME280;65952;51.440;-2.054;2023-04-24T08:20:48;99654.69;;;11.62;57.87
77023;BME280;65952;51.440;-2.054;2023-04-24T08:23:14;99661.66;;;11.57;58.26
77023;BME280;65952;51.440;-2.054;2023-04-24T08:25:39;99664.16;;;11.58;59.55
77023;BME280;65952;51.440;-2.054;2023-04-24T08:28:06;99666.00;;;11.58;59.95
77023;BME280;65952;51.440;-2.054;2023-04-24T08:30:31;99663.03;;;11.67;59.65
77023;BME280;65952;51.440;-2.054;2023-04-24T08:32:57;99665.72;;;11.67;59.69
77023;BME280;65952;51.440;-2.054;2023-04-24T08:35:22;99665.97;;;11.73;59.88
77023;BME280;65952;51.440;-2.054;2023-04-24T08:37:48;99660.78;;;11.71;60.21
77023;BME280;65952;51.440;-2.054;2023-04-24T08:40:15;99665.13;;;11.72;59.97
77023;BME280;65952;51.440;-2.054;2023-04-24T08:42:44;99654.81;;;11.76;59.86
77023;BME280;65952;51.440;-2.054;2023-04-24T08:45:11;99665.81;;;11.81;59.73
77023;BME280;65952;51.440;-2.054;2023-04-24T08:47:41;99667.72;;;12.02;59.69
77023;BME280;65952;51.440;-2.054;2023-04-24T08:50:07;99669.53;;;12.23;59.22
77023;BME280;65952;51.440;-2.054;2023-04-24T08:52:34;99664.97;;;12.45;58.25
77023;BME280;65952;51.440;-2.054;2023-04-24T08:55:03;99657.06;;;12.72;57.32
77023;BME280;65952;51.440;-2.054;2023-04-24T08:57:29;99661.09;;;12.90;55.83
77023;BME280;65952;51.440;-2.054;2023-04-24T08:59:57;99650.56;;;13.01;55.21
77023;BME280;65952;51.440;-2.054;2023-04-24T09:02:23;99643.13;;;13.10;55.06
77023;BME280;65952;51.440;-2.054;2023-04-24T09:04:49;99643.78;;;13.12;55.73
77023;BME280;65952;51.440;-2.054;2023-04-24T09:07:16;99648.47;;;13.45;55.69
77023;BME280;65952;51.440;-2.054;2023-04-24T09:09:43;99647.22;;;14.89;52.56
77023;BME280;65952;51.440;-2.054;2023-04-24T09:12:09;99642.34;;;16.64;46.83
77023;BME280;65952;51.440;-2.054;2023-04-24T09:14:35;99637.97;;;18.34;43.83
77023;BME280;65952;51.440;-2.054;2023-04-24T09:17:04;99645.19;;;19.57;39.64
77023;BME280;65952;51.440;-2.054;2023-04-24T09:19:31;99655.06;;;20.60;38.92
77023;BME280;65952;51.440;-2.054;2023-04-24T09:21:56;99645.09;;;21.10;36.32
77023;BME280;65952;51.440;-2.054;2023-04-24T09:24:22;99647.22;;;20.64;37.72
77023;BME280;65952;51.440;-2.054;2023-04-24T09:26:48;99658.00;;;20.03;39.01
77023;BME280;65952;51.440;-2.054;2023-04-24T09:29:18;99657.25;;;19.32;39.49
77023;BME280;65952;51.440;-2.054;2023-04-24T09:31:44;99658.06;;;18.57;41.38
77023;BME280;65952;51.440;-2.054;2023-04-24T09:34:10;99651.94;;;17.53;41.71
77023;BME280;65952;51.440;-2.054;2023-04-24T09:36:41;99657.50;;;16.72;43.18
77023;BME280;65952;51.440;-2.054;2023-04-24T09:39:08;99669.09;;;16.10;45.37
77023;BME280;65952;51.440;-2.054;2023-04-24T09:44:11;99675.28;;;14.94;48.54
77023;BME280;65952;51.440;-2.054;2023-04-24T09:46:36;99676.16;;;14.41;51.23
77023;BME280;65952;51.440;-2.054;2023-04-24T09:49:15;99673.03;;;13.84;53.39
77023;BME280;65952;51.440;-2.054;2023-04-24T09:51:41;99677.75;;;13.55;54.30
77023;BME280;65952;51.440;-2.054;2023-04-24T09:54:20;99671.75;;;13.11;53.87
77023;BME280;65952;51.440;-2.054;2023-04-24T09:56:48;99681.75;;;12.82;55.08
77023;BME280;65952;51.440;-2.054;2023-04-24T09:59:15;99684.72;;;12.59;56.38
77023;BME280;65952;51.440;-2.054;2023-04-24T10:01:41;99685.44;;;12.46;57.94
77023;BME280;65952;51.440;-2.054;2023-04-24T10:04:21;99691.81;;;12.39;58.01
77023;BME280;65952;51.440;-2.054;2023-04-24T10:06:48;99688.88;;;12.33;58.43
77023;BME280;65952;51.440;-2.054;2023-04-24T10:09:15;99686.34;;;12.25;59.02
77023;BME280;65952;51.440;-2.054;2023-04-24T10:11:42;99681.09;;;12.17;59.48
77023;BME280;65952;51.440;-2.054;2023-04-24T10:14:11;99684.75;;;12.09;60.17
77023;BME280;65952;51.440;-2.054;2023-04-24T10:16:39;99685.75;;;11.86;60.54
77023;BME280;65952;51.440;-2.054;2023-04-24T10:19:04;99696.38;;;11.73;62.24
77023;BME280;65952;51.440;-2.054;2023-04-24T10:21:30;99691.69;;;11.60;63.07
77023;BME280;65952;51.440;-2.054;2023-04-24T10:23:56;99695.53;;;11.51;63.99
77023;BME280;65952;51.440;-2.054;2023-04-24T10:26:23;99680.59;;;11.48;63.82
77023;BME280;65952;51.440;-2.054;2023-04-24T10:28:48;99686.81;;;11.49;63.97
77023;BME280;65952;51.440;-2.054;2023-04-24T10:31:14;99680.81;;;11.68;63.54
77023;BME280;65952;51.440;-2.054;2023-04-24T10:33:43;99678.28;;;12.03;63.18
77023;BME280;65952;51.440;-2.054;2023-04-24T10:36:12;99673.59;;;12.34;61.80
77023;BME280;65952;51.440;-2.054;2023-04-24T10:38:40;99667.78;;;13.00;60.10
77023;BME280;65952;51.440;-2.054;2023-04-24T10:41:11;99663.25;;;13.70;58.49
77023;BME280;65952;51.440;-2.054;2023-04-24T10:43:44;99660.56;;;14.63;55.99
77023;BME280;65952;51.440;-2.054;2023-04-24T10:46:10;99659.00;;;15.15;54.88
77023;BME280;65952;51.440;-2.054;2023-04-24T10:48:35;99667.03;;;15.35;52.49
77023;BME280;65952;51.440;-2.054;2023-04-24T10:51:01;99660.28;;;15.05;52.88
77023;BME280;65952;51.440;-2.054;2023-04-24T10:53:28;99649.81;;;14.23;54.58
77023;BME280;65952;51.440;-2.054;2023-04-24T10:56:05;99657.25;;;13.74;55.52
77023;BME280;65952;51.440;-2.054;2023-04-24T10:58:42;99660.09;;;13.46;56.98
77023;BME280;65952;51.440;-2.054;2023-04-24T11:01:27;99667.28;;;12.55;58.92
77023;BME280;65952;51.440;-2.054;2023-04-24T11:04:00;99671.47;;;12.29;59.43
77023;BME280;65952;51.440;-2.054;2023-04-24T11:06:37;99672.03;;;12.25;61.67
77023;BME280;65952;51.440;-2.054;2023-04-24T11:09:06;99673.00;;;12.17;62.72
77023;BME280;65952;51.440;-2.054;2023-04-24T11:11:33;99661.72;;;12.00;62.52
77023;BME280;65952;51.440;-2.054;2023-04-24T11:16:30;99668.13;;;11.62;65.17
77023;BME280;65952;51.440;-2.054;2023-04-24T11:21:39;99679.31;;;11.29;68.71
77023;BME280;65952;51.440;-2.054;2023-04-24T11:27:15;99688.00;;;10.80;71.14
77023;BME280;65952;51.440;-2.054;2023-04-24T11:29:49;99687.50;;;10.61;72.11
77023;BME280;65952;51.440;-2.054;2023-04-24T11:37:33;99702.03;;;9.90;72.96
77023;BME280;65952;51.440;-2.054;2023-04-24T11:39:59;99708.75;;;9.86;72.26
77023;BME280;65952;51.440;-2.054;2023-04-24T11:42:24;99696.25;;;9.79;72.30
77023;BME280;65952;51.440;-2.054;2023-04-24T11:44:52;99687.00;;;9.81;72.77
77023;BME280;65952;51.440;-2.054;2023-04-24T11:47:18;99683.84;;;10.01;73.27
77023;BME280;65952;51.440;-2.054;2023-04-24T11:49:43;99675.22;;;10.29;72.70
77023;BME280;65952;51.440;-2.054;2023-04-24T11:52:09;99683.88;;;10.54;71.56
77023;BME280;65952;51.440;-2.054;2023-04-24T11:54:36;99688.38;;;10.62;70.92
77023;BME280;65952;51.440;-2.054;2023-04-24T11:57:04;99686.44;;;10.70;69.48
77023;BME280;65952;51.440;-2.054;2023-04-24T11:59:35;99689.84;;;10.64;70.23
77023;BME280;65952;51.440;-2.054;2023-04-24T12:02:00;99691.81;;;10.70;70.79
77023;BME280;65952;51.440;-2.054;2023-04-24T12:04:26;99688.63;;;10.52;71.63
77023;BME280;65952;51.440;-2.054;2023-04-24T12:07:03;99689.25;;;10.39;72.19
77023;BME280;65952;51.440;-2.054;2023-04-24T12:09:55;99690.66;;;10.50;72.16
77023;BME280;65952;51.440;-2.054;2023-04-24T12:12:25;99690.66;;;10.65;72.67
77023;BME280;65952;51.440;-2.054;2023-04-24T12:14:56;99695.91;;;10.43;72.63
77023;BME280;65952;51.440;-2.054;2023-04-24T12:17:29;99693.53;;;10.48;72.99
77023;BME280;65952;51.440;-2.054;2023-04-24T12:20:01;99697.34;;;10.69;72.59
77023;BME280;65952;51.440;-2.054;2023-04-24T12:22:28;99710.13;;;10.82;71.63
77023;BME280;65952;51.440;-2.054;2023-04-24T12:27:22;99699.09;;;11.21;70.05
77023;BME280;65952;51.440;-2.054;2023-04-24T12:29:57;99709.38;;;11.03;69.90
77023;BME280;65952;51.440;-2.054;2023-04-24T12:32:23;99709.28;;;11.26;70.79
77023;BME280;65952;51.440;-2.054;2023-04-24T12:34:50;99717.44;;;11.03;69.58
77023;BME280;65952;51.440;-2.054;2023-04-24T12:37:17;99714.28;;;10.69;71.26
77023;BME280;65952;51.440;-2.054;2023-04-24T12:40:18;99706.66;;;10.43;72.56
77023;BME280;65952;51.440;-2.054;2023-04-24T12:42:48;99706.56;;;10.36;71.94
77023;BME280;65952;51.440;-2.054;2023-04-24T12:45:14;99710.81;;;10.46;71.83
77023;BME280;65952;51.440;-2.054;2023-04-24T12:47:41;99719.69;;;10.46;72.18
77023;BME280;65952;51.440;-2.054;2023-04-24T12:50:08;99720.28;;;10.56;71.96
77023;BME280;65952;51.440;-2.054;2023-04-24T12:52:33;99713.50;;;10.22;71.17
77023;BME280;65952;51.440;-2.054;2023-04-24T12:55:00;99729.59;;;9.99;72.45
77023;BME280;65952;51.440;-2.054;2023-04-24T12:57:28;99728.06;;;9.82;72.33
77023;BME280;65952;51.440;-2.054;2023-04-24T12:59:58;99730.03;;;9.88;73.09
77023;BME280;65952;51.440;-2.054;2023-04-24T13:02:28;99732.75;;;9.80;73.52
77023;BME280;65952;51.440;-2.054;2023-04-24T13:04:55;99738.00;;;9.73;74.24
77023;BME280;65952;51.440;-2.054;2023-04-24T13:07:20;99745.81;;;9.83;73.93
77023;BME280;65952;51.440;-2.054;2023-04-24T13:09:48;99745.94;;;9.89;74.01
77023;BME280;65952;51.440;-2.054;2023-04-24T13:12:14;99746.78;;;9.90;73.93